Time;durP1;ratioP1;P1;durP2;ratioP2;P2;SDS_P1;SDS_P2;PMS_P1;PMS_P2;Temp;Humidity;BMP_temperature;BMP_pressure;BME280_temperature;BME280_humidity;BME280_pressure;Samples;Min_cycle;Max_cycle;Signal;HPM_P1;HPM_P2
2021/04/18 00:02:07;;;;;;;7.97;6.73;;;3.00;99.90;;;;;;4974831;28;20407;-76
2021/04/18 00:04:32;;;;;;;11.90;8.57;;;3.00;99.90;;;;;;4974473;28;20172;-76
2021/04/18 00:06:58;;;;;;;11.50;9.37;;;2.90;99.90;;;;;;4977888;28;20219;-76
2021/04/18 00:09:24;;;;;;;8.33;7.47;;;2.90;99.90;;;;;;4978473;28;20222;-76
2021/04/18 00:11:49;;;;;;;8.97;7.53;;;2.90;99.90;;;;;;4979087;28;20176;-76
2021/04/18 00:14:15;;;;;;;11.43;8.43;;;2.90;99.90;;;;;;4978176;28;20192;-76
2021/04/18 00:16:41;;;;;;;9.13;7.47;;;2.90;99.90;;;;;;4978414;28;20180;-76
2021/04/18 00:19:07;;;;;;;8.80;7.80;;;2.90;99.90;;;;;;4977194;28;20258;-76
2021/04/18 00:21:33;;;;;;;11.77;7.37;;;2.90;99.90;;;;;;4977361;28;20557;-76
2021/04/18 00:23:59;;;;;;;8.10;7.20;;;2.80;99.90;;;;;;4978306;28;20411;-76
2021/04/18 00:26:25;;;;;;;8.60;7.70;;;2.80;99.90;;;;;;4978126;28;20507;-76
2021/04/18 00:28:51;;;;;;;8.57;7.67;;;2.90;99.90;;;;;;4978206;28;20840;-76
2021/04/18 00:31:17;;;;;;;10.93;7.80;;;2.70;99.90;;;;;;4977997;28;20415;-76
2021/04/18 00:33:43;;;;;;;9.57;7.97;;;2.80;99.90;;;;;;4978049;28;20187;-76
2021/04/18 00:36:08;;;;;;;10.80;8.80;;;2.80;99.90;;;;;;4977853;28;20176;-76
2021/04/18 00:38:35;;;;;;;11.67;9.50;;;2.80;99.90;;;;;;4978014;28;20283;-76
2021/04/18 00:41:01;;;;;;;15.20;10.47;;;2.70;99.90;;;;;;4977877;28;20200;-76
2021/04/18 00:43:27;;;;;;;16.10;9.87;;;2.70;99.90;;;;;;4977896;28;20407;-76
2021/04/18 00:45:53;;;;;;;14.67;10.07;;;2.80;99.90;;;;;;4976403;28;20417;-76
2021/04/18 00:48:18;;;;;;;14.70;11.27;;;2.70;99.90;;;;;;4978166;28;20545;-76
2021/04/18 00:50:44;;;;;;;12.63;9.93;;;2.70;99.90;;;;;;4976508;28;20211;-76
2021/04/18 00:53:10;;;;;;;14.77;10.87;;;2.70;99.90;;;;;;4976576;28;20713;-76
2021/04/18 00:55:40;;;;;;;10.80;9.53;;;2.70;99.90;;;;;;4977669;28;20443;-76
2021/04/18 00:58:07;;;;;;;11.27;9.50;;;2.70;99.90;;;;;;4976233;28;20828;-76
2021/04/18 01:00:35;;;;;;;10.90;8.63;;;2.70;99.90;;;;;;4976713;28;20880;-76
2021/04/18 01:03:01;;;;;;;13.23;9.20;;;2.70;99.90;;;;;;4978615;28;20469;-76
2021/04/18 01:05:27;;;;;;;11.87;8.90;;;2.70;99.90;;;;;;4978664;28;20977;-75
2021/04/18 01:07:53;;;;;;;11.57;8.53;;;2.70;99.90;;;;;;4977426;28;20502;-76
2021/04/18 01:10:20;;;;;;;11.93;9.90;;;2.70;99.90;;;;;;4977499;28;20192;-76
2021/04/18 01:12:46;;;;;;;10.57;8.97;;;2.60;99.90;;;;;;4976109;28;20180;-76
2021/04/18 01:15:13;;;;;;;10.47;8.50;;;2.70;99.90;;;;;;4977143;28;20414;-76
2021/04/18 01:17:40;;;;;;;11.00;9.50;;;2.60;99.90;;;;;;4977018;28;20840;-76
2021/04/18 01:20:09;;;;;;;9.90;8.43;;;2.60;99.90;;;;;;4977611;28;20582;-76
2021/04/18 01:22:35;;;;;;;12.23;10.03;;;2.60;99.90;;;;;;4977323;28;20542;-76
2021/04/18 01:25:01;;;;;;;15.90;8.77;;;2.60;99.90;;;;;;4975699;28;20510;-76
2021/04/18 01:27:27;;;;;;;19.97;13.20;;;2.60;99.90;;;;;;4975781;28;20184;-76
2021/04/18 01:29:52;;;;;;;27.83;16.97;;;2.60;99.90;;;;;;4975963;28;20424;-76
2021/04/18 01:32:21;;;;;;;25.63;16.70;;;2.60;99.90;;;;;;4977191;28;20183;-76
2021/04/18 01:34:48;;;;;;;26.63;17.17;;;2.50;99.90;;;;;;4977130;28;20180;-76
2021/04/18 01:37:17;;;;;;;41.50;22.50;;;2.50;99.90;;;;;;4977060;28;20408;-76
2021/04/18 01:39:43;;;;;;;39.30;21.40;;;2.50;99.90;;;;;;4976846;28;20787;-76
2021/04/18 01:42:09;;;;;;;22.83;15.03;;;2.60;99.90;;;;;;4975865;28;20404;-76
2021/04/18 01:44:35;;;;;;;18.37;13.30;;;2.50;99.90;;;;;;4976614;28;20814;-75
2021/04/18 01:47:01;;;;;;;17.10;11.43;;;2.50;99.90;;;;;;4975457;28;20646;-76
2021/04/18 01:49:27;;;;;;;14.93;10.30;;;2.50;99.90;;;;;;4976656;28;20199;-76
2021/04/18 01:51:52;;;;;;;16.77;11.97;;;2.50;99.90;;;;;;4975370;28;20187;-76
2021/04/18 01:54:18;;;;;;;21.17;13.83;;;2.50;99.90;;;;;;4976758;28;20173;-76
2021/04/18 01:56:44;;;;;;;20.07;14.40;;;2.50;99.90;;;;;;4975296;28;20192;-76
2021/04/18 01:59:09;;;;;;;20.23;13.93;;;2.40;99.90;;;;;;4976385;28;20239;-76
2021/04/18 02:01:39;;;;;;;16.77;12.00;;;2.40;99.90;;;;;;4975133;28;20204;-76
2021/04/18 02:04:24;;;;;;;13.97;11.33;;;2.40;99.90;;;;;;4976284;28;20532;-75
2021/04/18 02:06:50;;;;;;;21.50;13.40;;;2.40;99.90;;;;;;4976416;28;20392;-76
2021/04/18 02:09:15;;;;;;;18.33;14.03;;;2.40;99.90;;;;;;4976325;28;20435;-76
2021/04/18 02:11:42;;;;;;;17.63;12.97;;;2.30;99.90;;;;;;4976200;28;20643;-76
2021/04/18 02:14:08;;;;;;;15.80;12.60;;;2.30;99.90;;;;;;4976040;28;20172;-76
2021/04/18 02:16:34;;;;;;;14.43;11.33;;;2.30;99.90;;;;;;4974895;28;20420;-76
2021/04/18 02:19:00;;;;;;;16.73;12.40;;;2.40;99.90;;;;;;4976056;28;20432;-76
2021/04/18 02:21:26;;;;;;;16.93;11.73;;;2.30;99.90;;;;;;4974759;28;20463;-76
2021/04/18 02:23:51;;;;;;;15.70;11.80;;;2.30;99.90;;;;;;4974780;28;20212;-76
2021/04/18 02:26:17;;;;;;;12.63;10.43;;;2.20;99.90;;;;;;4974875;28;20706;-76
2021/04/18 02:28:43;;;;;;;13.93;10.43;;;2.20;99.90;;;;;;4975214;28;20192;-76
2021/04/18 02:31:10;;;;;;;15.70;11.67;;;2.30;99.90;;;;;;4976177;28;20583;-76
2021/04/18 02:33:36;;;;;;;13.57;10.50;;;2.30;99.90;;;;;;4975896;28;20176;-76
2021/04/18 02:36:02;;;;;;;14.63;11.03;;;2.30;99.90;;;;;;4975598;28;20415;-76
2021/04/18 02:38:27;;;;;;;13.57;10.97;;;2.20;99.90;;;;;;4975775;28;20560;-76
2021/04/18 02:40:53;;;;;;;11.73;9.73;;;2.40;99.90;;;;;;4975629;28;20204;-76
2021/04/18 02:43:19;;;;;;;14.03;11.27;;;2.30;99.90;;;;;;4975748;28;20254;-76
2021/04/18 02:45:44;;;;;;;13.03;11.07;;;2.40;99.90;;;;;;4974267;28;20288;-76
2021/04/18 02:48:10;;;;;;;12.73;11.13;;;2.30;99.90;;;;;;4975533;28;20247;-76
2021/04/18 02:50:36;;;;;;;13.00;10.67;;;2.40;99.90;;;;;;4975851;28;20184;-76
2021/04/18 02:53:02;;;;;;;13.00;10.37;;;2.30;99.90;;;;;;4974301;28;20216;-76
2021/04/18 02:55:28;;;;;;;13.40;11.10;;;2.20;99.90;;;;;;4974066;28;20454;-76
2021/04/18 02:57:53;;;;;;;12.80;9.93;;;2.30;99.90;;;;;;4975457;28;20263;-76
2021/04/18 03:00:19;;;;;;;13.97;10.93;;;2.30;99.90;;;;;;4975372;28;20307;-76
2021/04/18 03:02:45;;;;;;;14.10;11.27;;;2.30;99.90;;;;;;4975739;28;20172;-76
2021/04/18 03:05:11;;;;;;;13.70;11.13;;;2.20;99.90;;;;;;4975259;28;20747;-76
2021/04/18 03:07:37;;;;;;;13.13;11.23;;;2.30;99.90;;;;;;4975137;28;20198;-76
2021/04/18 03:10:03;;;;;;;14.13;11.17;;;2.40;99.90;;;;;;4975493;28;20183;-76
2021/04/18 03:12:29;;;;;;;12.47;10.87;;;2.30;99.90;;;;;;4975105;28;20168;-76
2021/04/18 03:14:55;;;;;;;17.80;10.90;;;2.30;99.90;;;;;;4975228;28;20932;-76
2021/04/18 03:17:20;;;;;;;13.97;11.40;;;2.40;99.90;;;;;;4975170;28;20183;-76
2021/04/18 03:19:47;;;;;;;13.10;11.20;;;2.40;99.90;;;;;;4975468;28;20215;-75
2021/04/18 03:22:13;;;;;;;14.50;11.20;;;2.30;99.90;;;;;;4973752;28;20180;-76
2021/04/18 03:24:40;;;;;;;13.57;11.03;;;2.30;99.90;;;;;;4975223;28;20418;-76
2021/04/18 03:27:06;;;;;;;12.70;10.83;;;2.30;99.90;;;;;;4975114;28;20447;-76
2021/04/18 03:29:31;;;;;;;17.03;11.43;;;2.30;99.90;;;;;;4975165;28;20929;-76
2021/04/18 03:31:57;;;;;;;13.63;11.97;;;2.40;99.90;;;;;;4974935;28;20247;-76
2021/04/18 03:34:23;;;;;;;14.73;12.07;;;2.30;99.90;;;;;;4975464;28;20176;-75
2021/04/18 03:36:49;;;;;;;14.23;11.90;;;2.30;99.90;;;;;;4973617;28;20188;-76
2021/04/18 03:39:14;;;;;;;14.77;11.40;;;2.30;99.90;;;;;;4974499;28;20202;-76
2021/04/18 03:41:40;;;;;;;16.47;12.00;;;2.40;99.90;;;;;;4972824;28;20255;-76
2021/04/18 03:44:06;;;;;;;13.87;10.53;;;2.20;99.90;;;;;;4974501;28;20207;-76
2021/04/18 03:46:32;;;;;;;13.80;10.87;;;2.20;99.90;;;;;;4975380;28;20619;-76
2021/04/18 03:48:57;;;;;;;14.20;11.37;;;2.20;99.90;;;;;;4974675;28;20438;-76
2021/04/18 03:51:23;;;;;;;16.00;11.60;;;2.20;99.90;;;;;;4974937;28;20657;-76
2021/04/18 03:53:49;;;;;;;17.23;11.97;;;2.20;99.90;;;;;;4974921;28;20261;-76
2021/04/18 03:56:14;;;;;;;13.73;11.63;;;2.20;99.90;;;;;;4973221;28;20330;-76
2021/04/18 03:58:40;;;;;;;14.13;11.27;;;2.30;99.90;;;;;;4974454;28;20217;-76
2021/04/18 04:01:06;;;;;;;16.67;11.77;;;2.20;99.90;;;;;;4973445;28;20238;-76
2021/04/18 04:03:32;;;;;;;17.57;10.93;;;2.30;99.90;;;;;;4974593;28;20848;-75
2021/04/18 04:05:58;;;;;;;15.40;12.90;;;2.30;99.90;;;;;;4974452;28;20254;-76
2021/04/18 04:08:24;;;;;;;13.23;11.73;;;2.30;99.90;;;;;;4974531;28;20196;-76
2021/04/18 04:10:49;;;;;;;17.67;12.30;;;2.30;99.90;;;;;;4974716;28;20219;-76
2021/04/18 04:13:15;;;;;;;18.30;12.00;;;2.20;99.90;;;;;;4974828;28;20187;-76
2021/04/18 04:15:41;;;;;;;14.77;12.00;;;2.20;99.90;;;;;;4972915;28;20674;-76
2021/04/18 04:18:06;;;;;;;14.70;11.40;;;2.20;99.90;;;;;;4974647;28;20282;-76
2021/04/18 04:20:32;;;;;;;14.70;12.30;;;2.10;99.90;;;;;;4974366;28;20569;-76
2021/04/18 04:22:58;;;;;;;16.67;12.57;;;2.10;99.90;;;;;;4974366;28;20176;-76
2021/04/18 04:25:24;;;;;;;14.63;11.97;;;2.20;99.90;;;;;;4972985;28;20295;-76
2021/04/18 04:27:50;;;;;;;16.23;13.03;;;2.10;99.90;;;;;;4974343;28;20884;-76
2021/04/18 04:30:16;;;;;;;16.73;13.07;;;2.20;99.90;;;;;;4973186;28;20184;-76
2021/04/18 04:32:41;;;;;;;17.03;13.17;;;2.20;99.90;;;;;;4974294;28;20206;-76
2021/04/18 04:35:09;;;;;;;15.83;13.47;;;2.20;99.90;;;;;;4973010;28;20415;-76
2021/04/18 04:37:34;;;;;;;15.37;12.50;;;2.20;99.90;;;;;;4974249;28;20204;-76
2021/04/18 04:40:00;;;;;;;16.40;12.17;;;2.20;99.90;;;;;;4974226;28;20513;-76
2021/04/18 04:42:26;;;;;;;16.63;11.67;;;2.30;99.90;;;;;;4974739;28;20182;-76
2021/04/18 04:44:51;;;;;;;17.23;12.93;;;2.30;99.90;;;;;;4972739;28;20548;-76
2021/04/18 04:47:17;;;;;;;16.73;12.40;;;2.30;99.90;;;;;;4974203;28;20191;-76
2021/04/18 04:49:42;;;;;;;15.97;12.83;;;2.30;99.90;;;;;;4973079;28;20677;-76
2021/04/18 04:52:11;;;;;;;15.73;12.47;;;2.30;99.90;;;;;;4976335;28;20215;-76
2021/04/18 04:54:39;;;;;;;14.87;11.97;;;2.20;99.90;;;;;;4976690;28;20180;-76
2021/04/18 04:57:06;;;;;;;18.30;12.57;;;2.20;99.90;;;;;;4977982;28;20435;-76
2021/04/18 04:59:32;;;;;;;15.80;12.90;;;2.30;99.90;;;;;;4976596;28;20526;-76
2021/04/18 05:01:58;;;;;;;16.93;12.77;;;2.30;99.90;;;;;;4977572;28;20551;-76
2021/04/18 05:04:23;;;;;;;15.73;13.17;;;2.30;99.90;;;;;;4977514;28;20658;-77
2021/04/18 05:06:49;;;;;;;16.60;12.90;;;2.20;99.90;;;;;;4977596;28;20187;-76
2021/04/18 05:09:15;;;;;;;18.70;13.73;;;2.20;99.90;;;;;;4977579;28;20203;-76
2021/04/18 05:11:40;;;;;;;14.93;13.03;;;2.30;99.90;;;;;;4977371;28;20690;-76
2021/04/18 05:14:06;;;;;;;16.93;12.43;;;2.20;99.90;;;;;;4977342;28;20180;-76
2021/04/18 05:16:32;;;;;;;17.70;13.83;;;2.30;99.90;;;;;;4977750;28;20172;-76
2021/04/18 05:18:57;;;;;;;15.47;12.60;;;2.30;99.90;;;;;;4977334;28;20608;-76
2021/04/18 05:21:24;;;;;;;17.97;13.90;;;2.30;99.90;;;;;;4977587;28;20200;-76
2021/04/18 05:23:50;;;;;;;16.60;12.63;;;2.30;99.90;;;;;;4976082;28;20183;-76
2021/04/18 05:26:16;;;;;;;16.37;12.97;;;2.40;99.90;;;;;;4976067;28;20412;-76
2021/04/18 05:28:42;;;;;;;18.63;13.90;;;2.40;99.90;;;;;;4978124;28;20239;-76
2021/04/18 05:31:08;;;;;;;15.83;13.27;;;2.50;99.90;;;;;;4977909;28;20589;-76
2021/04/18 05:33:34;;;;;;;17.50;13.73;;;2.50;99.90;;;;;;4978646;28;20244;-76
2021/04/18 05:36:00;;;;;;;19.60;13.93;;;2.50;99.90;;;;;;4977638;28;20443;-76
2021/04/18 05:38:26;;;;;;;20.77;16.03;;;2.40;99.90;;;;;;4977119;28;20188;-76
2021/04/18 05:40:51;;;;;;;17.40;14.63;;;2.50;99.90;;;;;;4977139;28;20242;-76
2021/04/18 05:43:17;;;;;;;17.03;13.73;;;2.50;99.90;;;;;;4976328;28;20654;-76
2021/04/18 05:45:43;;;;;;;18.83;14.97;;;2.60;99.90;;;;;;4975472;28;20200;-76
2021/04/18 05:48:09;;;;;;;17.87;14.63;;;2.60;99.90;;;;;;4976785;28;20251;-76
2021/04/18 05:50:35;;;;;;;18.90;14.80;;;2.60;99.90;;;;;;4976850;28;20176;-76
2021/04/18 05:53:00;;;;;;;18.27;14.17;;;2.50;99.90;;;;;;4975381;28;20469;-76
2021/04/18 05:55:26;;;;;;;18.33;14.63;;;2.60;99.90;;;;;;4976456;28;20191;-76
2021/04/18 05:57:52;;;;;;;18.90;13.70;;;2.60;99.90;;;;;;4976369;28;20227;-76
2021/04/18 06:00:18;;;;;;;21.23;15.07;;;2.70;99.90;;;;;;4976545;28;20451;-76
2021/04/18 06:02:45;;;;;;;19.63;15.33;;;2.70;99.90;;;;;;4975981;28;20207;-76
2021/04/18 06:05:11;;;;;;;18.13;15.00;;;2.70;99.90;;;;;;4976140;28;20404;-76
2021/04/18 06:07:36;;;;;;;19.47;15.03;;;2.70;99.90;;;;;;4976595;28;20284;-76
2021/04/18 06:10:04;;;;;;;19.37;15.70;;;2.60;99.90;;;;;;4976840;28;20180;-76
2021/04/18 06:12:29;;;;;;;18.67;15.00;;;2.70;99.90;;;;;;4976252;28;20192;-76
2021/04/18 06:14:55;;;;;;;20.03;15.00;;;2.70;99.90;;;;;;4976086;28;20407;-76
2021/04/18 06:17:21;;;;;;;20.67;15.60;;;2.70;99.90;;;;;;4976044;28;20634;-76
2021/04/18 06:19:46;;;;;;;18.73;14.93;;;2.80;99.90;;;;;;4976037;28;20199;-76
2021/04/18 06:22:12;;;;;;;21.70;16.87;;;2.70;99.90;;;;;;4976406;28;20172;-76
2021/04/18 06:24:37;;;;;;;20.57;16.10;;;2.70;99.90;;;;;;4974634;28;20186;-76
2021/04/18 06:27:03;;;;;;;21.03;16.00;;;2.80;99.90;;;;;;4976104;28;20771;-76
2021/04/18 06:29:29;;;;;;;19.93;15.93;;;2.80;99.90;;;;;;4976001;28;20658;-76
2021/04/18 06:31:56;;;;;;;21.40;16.43;;;2.80;99.90;;;;;;4976007;28;20231;-76
2021/04/18 06:34:23;;;;;;;19.70;16.40;;;2.80;99.90;;;;;;4974393;28;20170;-76
2021/04/18 06:36:50;;;;;;;22.07;16.67;;;2.80;99.90;;;;;;4974542;28;20427;-76
2021/04/18 06:39:17;;;;;;;24.80;16.80;;;2.90;99.90;;;;;;4975734;28;20825;-76
2021/04/18 06:42:03;;;;;;;19.97;16.30;;;2.80;99.90;;;;;;4975713;28;20864;-76
2021/04/18 06:44:30;;;;;;;21.07;16.43;;;2.90;99.90;;;;;;4975504;28;20503;-76
2021/04/18 06:46:58;;;;;;;21.67;16.57;;;3.00;99.90;;;;;;4976059;28;20536;-76
2021/04/18 06:49:25;;;;;;;22.03;16.40;;;3.00;99.90;;;;;;4975653;28;20848;-76
2021/04/18 06:51:52;;;;;;;19.83;16.33;;;3.00;99.90;;;;;;4975786;28;20447;-76
2021/04/18 06:54:18;;;;;;;20.57;15.60;;;3.00;99.90;;;;;;4975291;28;20524;-76
2021/04/18 06:56:44;;;;;;;21.47;15.93;;;3.00;99.90;;;;;;4974212;28;20439;-76
2021/04/18 06:59:10;;;;;;;21.13;15.87;;;3.10;99.90;;;;;;4975597;28;20956;-76
2021/04/18 07:01:35;;;;;;;22.63;17.27;;;3.20;99.90;;;;;;4974312;28;20577;-76
2021/04/18 07:04:13;;;;;;;20.80;16.90;;;3.20;99.90;;;;;;4975627;28;20204;-75
2021/04/18 07:06:41;;;;;;;22.47;17.20;;;3.40;99.90;;;;;;4974269;28;20172;-76
2021/04/18 07:09:08;;;;;;;22.10;16.27;;;3.60;99.90;;;;;;4975144;28;20436;-76
2021/04/18 07:11:44;;;;;;;19.90;16.20;;;3.60;99.90;;;;;;4975192;28;20763;-76
2021/04/18 07:14:33;;;;;;;20.53;15.97;;;3.70;99.90;;;;;;4973585;28;20506;-76
2021/04/18 07:17:13;;;;;;;17.47;15.03;;;3.70;99.90;;;;;;4975021;28;20420;-77
2021/04/18 07:19:50;;;;;;;20.70;15.93;;;3.80;99.90;;;;;;4974257;28;20903;-77
2021/04/18 07:22:27;;;;;;;20.50;15.17;;;3.80;99.90;;;;;;4975751;28;20387;-77
2021/04/18 07:24:55;;;;;;;20.10;15.47;;;3.90;99.90;;;;;;4975019;28;20403;-77
2021/04/18 07:27:22;;;;;;;21.73;16.33;;;4.10;99.90;;;;;;4974786;28;20411;-77
2021/04/18 07:29:55;;;;;;;20.80;16.40;;;4.20;99.90;;;;;;4975867;28;20404;-78
2021/04/18 07:32:23;;;;;;;19.83;14.73;;;4.20;99.90;;;;;;4974578;28;20426;-77
2021/04/18 07:34:49;;;;;;;20.03;16.07;;;4.20;99.90;;;;;;4974284;28;20427;-77
2021/04/18 07:37:21;;;;;;;19.30;16.67;;;4.20;99.90;;;;;;4976295;28;20403;-77
2021/04/18 07:39:58;;;;;;;18.80;15.53;;;4.10;99.90;;;;;;4975384;28;20384;-77
2021/04/18 07:42:38;;;;;;;18.80;16.00;;;4.10;99.90;;;;;;4975339;28;20406;-76
2021/04/18 07:45:11;;;;;;;18.00;14.53;;;4.20;99.90;;;;;;4973750;28;20423;-77
2021/04/18 07:47:42;;;;;;;19.53;15.70;;;4.20;99.90;;;;;;4975886;28;20428;-78
2021/04/18 07:50:13;;;;;;;20.00;16.37;;;4.20;99.90;;;;;;4974788;28;20396;-76
2021/04/18 07:52:41;;;;;;;18.53;15.93;;;4.10;99.90;;;;;;4974756;28;20913;-76
2021/04/18 07:55:08;;;;;;;20.73;17.23;;;4.00;99.90;;;;;;4973258;28;20821;-76
2021/04/18 07:57:33;;;;;;;20.70;16.20;;;4.00;99.90;;;;;;4973249;28;20467;-78
2021/04/18 07:59:59;;;;;;;17.90;15.43;;;4.00;99.90;;;;;;4974586;28;20502;-76
2021/04/18 08:02:26;;;;;;;20.47;15.07;;;4.10;99.90;;;;;;4974618;28;20251;-76
2021/04/18 08:04:56;;;;;;;18.40;14.67;;;4.10;99.90;;;;;;4974484;28;20530;-76
2021/04/18 08:07:23;;;;;;;21.30;17.70;;;4.20;99.90;;;;;;4974802;28;20388;-77
2021/04/18 08:10:22;;;;;;;19.53;16.10;;;4.20;99.90;;;;;;4974865;28;20464;-77
2021/04/18 08:13:08;;;;;;;18.80;15.47;;;4.20;99.90;;;;;;4975211;28;20384;-77
2021/04/18 08:15:41;;;;;;;17.73;15.83;;;4.20;99.90;;;;;;4974509;28;20396;-77
2021/04/18 08:18:16;;;;;;;19.70;15.50;;;4.30;99.90;;;;;;4974582;28;20659;-77
2021/04/18 08:20:44;;;;;;;19.30;16.07;;;4.20;99.90;;;;;;4974583;28;20458;-77
2021/04/18 08:23:14;;;;;;;17.70;14.43;;;4.20;99.90;;;;;;4974613;28;20207;-77
2021/04/18 08:26:15;;;;;;;19.47;16.30;;;4.20;99.90;;;;;;4974307;28;20905;-77
2021/04/18 08:29:05;;;;;;;20.33;15.90;;;4.30;99.90;;;;;;4976970;28;20290;-77
2021/04/18 08:32:16;;;;;;;19.17;15.70;;;4.50;99.90;;;;;;4977118;28;20420;-76
2021/04/18 08:34:44;;;;;;;20.77;16.77;;;4.70;99.90;;;;;;4975750;28;20526;-77
2021/04/18 08:37:18;;;;;;;18.93;15.83;;;4.80;99.90;;;;;;4977912;28;20411;-77
2021/04/18 08:39:44;;;;;;;20.43;16.47;;;4.70;99.90;;;;;;4978275;28;20392;-77
2021/04/18 08:42:26;;;;;;;20.07;16.70;;;4.70;99.90;;;;;;4976521;28;20210;-77
2021/04/18 08:44:53;;;;;;;21.30;16.67;;;4.80;99.90;;;;;;4977927;28;20161;-76
2021/04/18 08:47:20;;;;;;;17.83;15.40;;;4.90;99.90;;;;;;4977805;28;20204;-76
2021/04/18 08:49:53;;;;;;;18.97;16.93;;;5.10;99.90;;;;;;4977079;28;20180;-76
2021/04/18 08:52:27;;;;;;;19.30;16.67;;;5.10;99.90;;;;;;4976384;28;20486;-76
2021/04/18 08:54:55;;;;;;;17.40;14.77;;;5.20;99.90;;;;;;4977577;28;20177;-76
2021/04/18 08:57:32;;;;;;;19.97;16.37;;;5.10;99.90;;;;;;4977431;28;20443;-76
2021/04/18 09:00:05;;;;;;;17.37;15.13;;;5.00;99.90;;;;;;4977872;28;20392;-76
2021/04/18 09:02:31;;;;;;;19.10;15.83;;;4.90;99.90;;;;;;4977531;28;20176;-76
2021/04/18 09:04:59;;;;;;;18.13;15.43;;;4.80;99.90;;;;;;4976129;28;20475;-76
2021/04/18 09:07:29;;;;;;;18.70;15.23;;;4.90;99.90;;;;;;4977948;28;20176;-77
2021/04/18 09:10:00;;;;;;;17.80;15.20;;;4.90;99.90;;;;;;4976283;28;20400;-77
2021/04/18 09:12:26;;;;;;;20.97;15.53;;;4.90;99.90;;;;;;4977799;28;20179;-76
2021/04/18 09:14:52;;;;;;;18.63;15.47;;;4.80;99.90;;;;;;4977654;28;20534;-76
2021/04/18 09:17:22;;;;;;;18.13;15.10;;;4.70;99.90;;;;;;4976160;28;20181;-77
2021/04/18 09:20:02;;;;;;;20.00;16.17;;;4.60;99.90;;;;;;4976141;28;20216;-77
2021/04/18 09:22:30;;;;;;;19.50;15.77;;;4.60;99.90;;;;;;4976179;28;20196;-77
2021/04/18 09:25:07;;;;;;;18.93;15.70;;;4.60;99.90;;;;;;4977180;28;20902;-77
2021/04/18 09:27:35;;;;;;;19.93;16.77;;;4.70;99.90;;;;;;4977200;28;20439;-77
2021/04/18 09:30:10;;;;;;;17.60;14.70;;;4.70;99.90;;;;;;4977380;28;20430;-77
2021/04/18 09:32:36;;;;;;;18.47;15.13;;;4.70;99.90;;;;;;4977173;28;20419;-77
2021/04/18 09:35:03;;;;;;;20.17;16.47;;;4.70;99.90;;;;;;4975592;28;20188;-77
2021/04/18 09:37:35;;;;;;;19.67;16.10;;;4.80;99.90;;;;;;4976813;28;20412;-77
2021/04/18 09:40:13;;;;;;;17.83;15.13;;;4.70;99.90;;;;;;4977324;28;20219;-77
2021/04/18 09:42:45;;;;;;;17.83;14.43;;;4.90;99.90;;;;;;4981835;28;20230;-76
2021/04/18 09:45:13;;;;;;;20.70;14.87;;;4.90;99.90;;;;;;4976719;28;20161;-77
2021/04/18 09:47:42;;;;;;;19.37;16.37;;;5.00;99.90;;;;;;4979176;28;20642;-76
2021/04/18 09:50:25;;;;;;;19.03;16.03;;;5.30;99.90;;;;;;4996139;28;20509;-77
2021/04/18 09:52:51;;;;;;;18.00;14.80;;;5.50;99.90;;;;;;4975422;28;20188;-77
2021/04/18 09:55:28;;;;;;;17.63;15.03;;;5.60;99.90;;;;;;4976595;28;20227;-76
2021/04/18 09:57:59;;;;;;;17.90;15.93;;;5.80;99.90;;;;;;4975138;28;20458;-76
2021/04/18 10:00:30;;;;;;;20.40;15.87;;;5.80;99.90;;;;;;4976774;28;20557;-76
2021/04/18 10:03:09;;;;;;;17.00;14.57;;;5.80;99.90;;;;;;4976581;28;20420;-76
2021/04/18 10:05:38;;;;;;;19.90;15.67;;;6.00;99.90;;;;;;4975213;28;20266;-76
2021/04/18 10:08:18;;;;;;;16.67;14.43;;;6.10;99.90;;;;;;4976400;28;20192;-77
2021/04/18 10:10:45;;;;;;;15.80;13.33;;;6.30;99.90;;;;;;4975120;28;20179;-77
2021/04/18 10:13:11;;;;;;;18.37;15.30;;;6.40;99.90;;;;;;4976335;28;20568;-77
2021/04/18 10:15:55;;;;;;;17.13;14.27;;;6.50;99.90;;;;;;4976253;28;20180;-76
2021/04/18 10:18:21;;;;;;;16.83;14.30;;;6.70;99.90;;;;;;4974931;28;20207;-77
2021/04/18 10:20:48;;;;;;;16.47;13.67;;;6.70;99.90;;;;;;4974859;28;20212;-77
2021/04/18 10:23:15;;;;;;;18.43;15.47;;;6.60;99.90;;;;;;4976117;28;20183;-77
2021/04/18 10:25:41;;;;;;;16.57;14.20;;;6.50;99.90;;;;;;4974782;28;20196;-77
2021/04/18 10:28:08;;;;;;;19.80;15.87;;;6.40;99.90;;;;;;4974754;28;20567;-77
2021/04/18 10:30:36;;;;;;;18.37;15.20;;;6.30;99.90;;;;;;4993961;28;20192;-77
2021/04/18 10:33:02;;;;;;;17.20;15.10;;;6.50;99.90;;;;;;4995451;28;20198;-77
2021/04/18 10:35:28;;;;;;;27.00;21.13;;;6.60;99.90;;;;;;4994089;28;20716;-77
2021/04/18 10:37:53;;;;;;;23.43;15.63;;;6.70;99.90;;;;;;4994066;28;20290;-77
2021/04/18 10:40:22;;;;;;;17.87;15.33;;;6.70;99.90;;;;;;4995329;28;20650;-77
2021/04/18 10:42:49;;;;;;;24.37;20.23;;;6.80;99.90;;;;;;4995220;28;20219;-77
2021/04/18 10:45:16;;;;;;;17.60;14.67;;;6.90;99.90;;;;;;4995132;28;20238;-77
2021/04/18 10:47:41;;;;;;;17.23;14.53;;;7.10;99.90;;;;;;4995197;28;20725;-77
2021/04/18 10:50:08;;;;;;;17.73;13.67;;;6.90;99.90;;;;;;4993632;28;20220;-77
2021/04/18 10:52:34;;;;;;;15.43;13.40;;;7.00;99.90;;;;;;4995382;28;20585;-77
2021/04/18 10:55:00;;;;;;;17.43;13.90;;;7.00;99.90;;;;;;4995418;28;20578;-77
2021/04/18 10:57:27;;;;;;;17.47;14.40;;;6.90;99.90;;;;;;4993817;28;20673;-77
2021/04/18 10:59:52;;;;;;;16.77;13.67;;;6.90;99.90;;;;;;4995170;28;20203;-77
2021/04/18 11:02:18;;;;;;;14.20;12.20;;;6.90;99.90;;;;;;4995327;28;20206;-78
2021/04/18 11:04:44;;;;;;;18.00;12.27;;;6.90;99.90;;;;;;4993912;28;20181;-78
2021/04/18 11:07:10;;;;;;;14.73;12.00;;;6.80;99.90;;;;;;4995538;28;20179;-78
2021/04/18 11:09:39;;;;;;;15.93;12.13;;;6.80;99.90;;;;;;4994884;28;20646;-77
2021/04/18 11:12:19;;;;;;;15.90;11.93;;;7.00;99.90;;;;;;5011566;28;20206;-77
2021/04/18 11:14:45;;;;;;;17.77;12.50;;;7.30;99.90;;;;;;4995165;28;20184;-77
2021/04/18 11:17:11;;;;;;;14.30;12.80;;;7.50;99.90;;;;;;4994950;28;20628;-77
2021/04/18 11:19:37;;;;;;;18.07;12.90;;;7.40;99.90;;;;;;4995096;28;20191;-77
2021/04/18 11:22:03;;;;;;;14.60;11.90;;;7.60;99.90;;;;;;4995006;28;20203;-77
2021/04/18 11:24:28;;;;;;;17.13;11.77;;;7.60;99.90;;;;;;4994431;28;20183;-77
2021/04/18 11:26:54;;;;;;;12.43;10.97;;;7.70;99.90;;;;;;5009105;28;20185;-77
2021/04/18 11:29:20;;;;;;;15.67;12.37;;;7.90;99.90;;;;;;4994554;28;20195;-77
2021/04/18 11:31:48;;;;;;;15.10;12.87;;;8.10;99.90;;;;;;4996079;28;20182;-77
2021/04/18 11:34:14;;;;;;;13.57;11.83;;;7.90;99.90;;;;;;4996093;28;20263;-78
2021/04/18 11:36:40;;;;;;;13.37;11.97;;;7.90;99.90;;;;;;4996369;28;20672;-78
2021/04/18 11:39:06;;;;;;;14.60;11.77;;;7.80;99.90;;;;;;4995493;28;20219;-78
2021/04/18 11:41:33;;;;;;;17.30;12.97;;;7.50;99.90;;;;;;4995186;28;20203;-77
2021/04/18 11:44:00;;;;;;;13.27;11.87;;;7.40;99.90;;;;;;4996384;28;20197;-78
2021/04/18 11:46:26;;;;;;;15.03;12.30;;;7.30;99.90;;;;;;4995438;28;20179;-77
2021/04/18 11:48:55;;;;;;;14.90;12.40;;;7.20;99.90;;;;;;5009582;28;20204;-77
2021/04/18 11:51:21;;;;;;;14.23;11.90;;;7.20;99.90;;;;;;4994913;28;20226;-77
2021/04/18 11:53:47;;;;;;;13.47;12.07;;;7.20;99.90;;;;;;4995272;28;20250;-77
2021/04/18 11:56:13;;;;;;;13.97;11.93;;;7.20;99.90;;;;;;4994971;28;20264;-78
2021/04/18 11:58:39;;;;;;;21.00;16.00;;;7.20;99.90;;;;;;4993844;28;20221;-78
2021/04/18 12:01:05;;;;;;;17.20;13.70;;;7.30;99.90;;;;;;4993731;28;20205;-77
2021/04/18 12:03:30;;;;;;;17.43;12.83;;;7.50;99.90;;;;;;4994564;28;20633;-77
2021/04/18 12:05:57;;;;;;;16.10;12.93;;;7.60;99.90;;;;;;4994213;28;20206;-77
2021/04/18 12:08:23;;;;;;;17.57;13.87;;;7.70;99.90;;;;;;4993381;28;20209;-77
2021/04/18 12:10:49;;;;;;;20.77;15.80;;;7.70;99.90;;;;;;4994512;28;20230;-77
2021/04/18 12:13:15;;;;;;;15.60;13.83;;;7.70;99.90;;;;;;4994146;28;20182;-77
2021/04/18 12:15:40;;;;;;;16.10;13.63;;;7.70;99.90;;;;;;4994181;28;20550;-77
2021/04/18 12:18:06;;;;;;;18.63;15.90;;;7.60;99.90;;;;;;4994234;28;20561;-77
2021/04/18 12:20:32;;;;;;;17.50;14.17;;;7.60;99.90;;;;;;4994312;28;20207;-77
2021/04/18 12:22:57;;;;;;;16.40;12.90;;;7.60;99.90;;;;;;4994355;28;20180;-78
2021/04/18 12:25:23;;;;;;;14.73;12.33;;;7.60;99.90;;;;;;4994119;28;20178;-77
2021/04/18 12:27:49;;;;;;;16.67;14.40;;;7.30;99.90;;;;;;4994161;28;20310;-78
2021/04/18 12:30:15;;;;;;;18.43;13.07;;;7.30;99.90;;;;;;5008136;28;20187;-77
2021/04/18 12:32:45;;;;;;;14.97;12.57;;;7.20;99.90;;;;;;4974803;28;20176;-77
2021/04/18 12:35:11;;;;;;;19.20;13.43;;;7.10;99.90;;;;;;4972995;28;20187;-77
2021/04/18 12:37:37;;;;;;;18.07;13.53;;;7.10;99.90;;;;;;4974289;28;20261;-77
2021/04/18 12:40:03;;;;;;;15.47;13.23;;;7.10;99.90;;;;;;4974205;28;20646;-76
2021/04/18 12:42:29;;;;;;;17.73;14.30;;;7.10;99.90;;;;;;4974247;28;20187;-77